sensor_id;sensor_type;location;lat;lon;timestamp;temperature;humidity
33927;DHT22;20485;50.992;5.550;2023-04-01T00:00:55;9.00;99.90
33927;DHT22;20485;50.992;5.550;2023-04-01T00:03:23;9.00;99.90
33927;DHT22;20485;50.992;5.550;2023-04-01T00:05:49;9.00;99.90
33927;DHT22;20485;50.992;5.550;2023-04-01T00:08:15;9.00;99.90
33927;DHT22;20485;50.992;5.550;2023-04-01T00:10:41;9.00;99.90
33927;DHT22;20485;50.992;5.550;2023-04-01T00:13:07;9.00;99.90
33927;DHT22;20485;50.992;5.550;2023-04-01T00:15:33;9.00;99.90
33927;DHT22;20485;50.992;5.550;2023-04-01T00:17:59;8.90;99.90
33927;DHT22;20485;50.992;5.550;2023-04-01T00:20:26;8.90;99.90
33927;DHT22;20485;50.992;5.550;2023-04-01T00:22:52;8.90;99.90
33927;DHT22;20485;50.992;5.550;2023-04-01T00:25:17;8.90;99.90
33927;DHT22;20485;50.992;5.550;2023-04-01T00:27:44;8.90;99.90
33927;DHT22;20485;50.992;5.550;2023-04-01T00:30:10;8.90;99.90
33927;DHT22;20485;50.992;5.550;2023-04-01T00:32:37;8.90;99.90
33927;DHT22;20485;50.992;5.550;2023-04-01T00:35:03;8.90;99.90
33927;DHT22;20485;50.992;5.550;2023-04-01T00:37:29;8.90;99.90
33927;DHT22;20485;50.992;5.550;2023-04-01T00:39:56;8.90;99.90
33927;DHT22;20485;50.992;5.550;2023-04-01T00:42:22;8.90;99.90
33927;DHT22;20485;50.992;5.550;2023-04-01T00:44:51;8.90;99.90
33927;DHT22;20485;50.992;5.550;2023-04-01T00:47:18;8.90;99.90
33927;DHT22;20485;50.992;5.550;2023-04-01T00:49:45;8.90;99.90
33927;DHT22;20485;50.992;5.550;2023-04-01T00:52:14;8.90;99.90
33927;DHT22;20485;50.992;5.550;2023-04-01T00:54:43;8.90;99.90
33927;DHT22;20485;50.992;5.550;2023-04-01T00:57:27;8.90;99.90
33927;DHT22;20485;50.992;5.550;2023-04-01T00:59:55;8.80;99.90
33927;DHT22;20485;50.992;5.550;2023-04-01T01:02:21;8.90;99.90
33927;DHT22;20485;50.992;5.550;2023-04-01T01:04:48;8.90;99.90
33927;DHT22;20485;50.992;5.550;2023-04-01T01:10:17;8.90;99.90
33927;DHT22;20485;50.992;5.550;2023-04-01T01:13:01;8.80;99.90
33927;DHT22;20485;50.992;5.550;2023-04-01T01:29:32;8.80;99.90
33927;DHT22;20485;50.992;5.550;2023-04-01T01:35:19;8.80;99.90
33927;DHT22;20485;50.992;5.550;2023-04-01T01:37:46;8.80;99.90
33927;DHT22;20485;50.992;5.550;2023-04-01T01:40:13;8.90;99.90
33927;DHT22;20485;50.992;5.550;2023-04-01T01:42:45;8.80;99.90
33927;DHT22;20485;50.992;5.550;2023-04-01T01:45:13;8.80;99.90
33927;DHT22;20485;50.992;5.550;2023-04-01T01:47:40;8.80;99.90
33927;DHT22;20485;50.992;5.550;2023-04-01T01:50:08;8.90;99.90
33927;DHT22;20485;50.992;5.550;2023-04-01T01:52:34;8.90;99.90
33927;DHT22;20485;50.992;5.550;2023-04-01T01:55:00;8.90;99.90
33927;DHT22;20485;50.992;5.550;2023-04-01T01:57:30;8.90;99.90
33927;DHT22;20485;50.992;5.550;2023-04-01T02:00:02;8.80;99.90
33927;DHT22;20485;50.992;5.550;2023-04-01T02:02:30;8.80;99.90
33927;DHT22;20485;50.992;5.550;2023-04-01T02:04:57;8.80;99.90
33927;DHT22;20485;50.992;5.550;2023-04-01T02:07:28;8.80;99.90
33927;DHT22;20485;50.992;5.550;2023-04-01T02:09:56;8.80;99.90
33927;DHT22;20485;50.992;5.550;2023-04-01T02:12:22;8.80;99.90
33927;DHT22;20485;50.992;5.550;2023-04-01T02:15:06;8.80;99.90
33927;DHT22;20485;50.992;5.550;2023-04-01T02:17:34;8.80;99.90
33927;DHT22;20485;50.992;5.550;2023-04-01T02:20:12;8.80;99.90
33927;DHT22;20485;50.992;5.550;2023-04-01T02:22:41;8.80;99.90
33927;DHT22;20485;50.992;5.550;2023-04-01T02:25:12;8.80;99.90
33927;DHT22;20485;50.992;5.550;2023-04-01T02:27:39;8.80;99.90
33927;DHT22;20485;50.992;5.550;2023-04-01T02:30:06;8.80;99.90
33927;DHT22;20485;50.992;5.550;2023-04-01T02:32:34;8.80;99.90
33927;DHT22;20485;50.992;5.550;2023-04-01T02:35:00;8.80;99.90
33927;DHT22;20485;50.992;5.550;2023-04-01T02:37:31;8.80;99.90
33927;DHT22;20485;50.992;5.550;2023-04-01T02:40:07;8.80;99.90
33927;DHT22;20485;50.992;5.550;2023-04-01T02:42:34;8.80;99.90
33927;DHT22;20485;50.992;5.550;2023-04-01T02:45:00;8.80;99.90
33927;DHT22;20485;50.992;5.550;2023-04-01T02:47:25;8.80;99.90
33927;DHT22;20485;50.992;5.550;2023-04-01T02:49:51;8.80;99.90
33927;DHT22;20485;50.992;5.550;2023-04-01T02:52:27;8.80;99.90
33927;DHT22;20485;50.992;5.550;2023-04-01T02:54:54;8.80;99.90
33927;DHT22;20485;50.992;5.550;2023-04-01T02:57:20;8.80;99.90
33927;DHT22;20485;50.992;5.550;2023-04-01T02:59:46;8.80;99.90
33927;DHT22;20485;50.992;5.550;2023-04-01T03:02:13;8.90;99.90
33927;DHT22;20485;50.992;5.550;2023-04-01T03:04:39;8.90;99.90
33927;DHT22;20485;50.992;5.550;2023-04-01T03:07:04;8.80;99.90
33927;DHT22;20485;50.992;5.550;2023-04-01T03:09:30;8.80;99.90
33927;DHT22;20485;50.992;5.550;2023-04-01T03:11:56;8.80;99.90
33927;DHT22;20485;50.992;5.550;2023-04-01T03:14:25;8.80;99.90
33927;DHT22;20485;50.992;5.550;2023-04-01T03:16:50;8.80;99.90
33927;DHT22;20485;50.992;5.550;2023-04-01T03:19:16;8.80;99.90
33927;DHT22;20485;50.992;5.550;2023-04-01T03:22:00;8.90;99.90
33927;DHT22;20485;50.992;5.550;2023-04-01T03:24:26;8.90;99.90
33927;DHT22;20485;50.992;5.550;2023-04-01T03:26:52;8.80;99.90
33927;DHT22;20485;50.992;5.550;2023-04-01T03:29:18;8.80;99.90
33927;DHT22;20485;50.992;5.550;2023-04-01T03:31:43;8.80;99.90
33927;DHT22;20485;50.992;5.550;2023-04-01T03:34:09;8.80;99.90
33927;DHT22;20485;50.992;5.550;2023-04-01T03:36:35;8.80;99.90
33927;DHT22;20485;50.992;5.550;2023-04-01T03:39:01;8.80;99.90
33927;DHT22;20485;50.992;5.550;2023-04-01T03:41:28;8.80;99.90
33927;DHT22;20485;50.992;5.550;2023-04-01T03:44:03;8.80;99.90
33927;DHT22;20485;50.992;5.550;2023-04-01T03:46:29;8.80;99.90
33927;DHT22;20485;50.992;5.550;2023-04-01T03:48:55;8.70;99.90
33927;DHT22;20485;50.992;5.550;2023-04-01T03:51:21;8.70;99.90
33927;DHT22;20485;50.992;5.550;2023-04-01T03:53:47;8.70;99.90
33927;DHT22;20485;50.992;5.550;2023-04-01T03:56:12;8.70;99.90
33927;DHT22;20485;50.992;5.550;2023-04-01T03:58:38;8.70;99.90
33927;DHT22;20485;50.992;5.550;2023-04-01T04:01:14;8.70;99.90
33927;DHT22;20485;50.992;5.550;2023-04-01T04:03:40;8.70;99.90
33927;DHT22;20485;50.992;5.550;2023-04-01T04:06:05;8.70;99.90
33927;DHT22;20485;50.992;5.550;2023-04-01T04:08:35;8.70;99.90
33927;DHT22;20485;50.992;5.550;2023-04-01T04:11:00;8.70;99.90
33927;DHT22;20485;50.992;5.550;2023-04-01T04:13:26;8.70;99.90
33927;DHT22;20485;50.992;5.550;2023-04-01T04:15:52;8.60;99.90
33927;DHT22;20485;50.992;5.550;2023-04-01T04:18:17;8.60;99.90
33927;DHT22;20485;50.992;5.550;2023-04-01T04:20:46;8.60;99.90
33927;DHT22;20485;50.992;5.550;2023-04-01T04:23:13;8.60;99.90
33927;DHT22;20485;50.992;5.550;2023-04-01T04:25:39;8.60;99.90
33927;DHT22;20485;50.992;5.550;2023-04-01T04:28:05;8.60;99.90
33927;DHT22;20485;50.992;5.550;2023-04-01T04:30:31;8.70;99.90
33927;DHT22;20485;50.992;5.550;2023-04-01T04:32:56;8.70;99.90
33927;DHT22;20485;50.992;5.550;2023-04-01T04:35:22;8.60;99.90
33927;DHT22;20485;50.992;5.550;2023-04-01T04:37:47;8.60;99.90
33927;DHT22;20485;50.992;5.550;2023-04-01T04:40:13;8.60;99.90
33927;DHT22;20485;50.992;5.550;2023-04-01T04:42:39;8.70;99.90
33927;DHT22;20485;50.992;5.550;2023-04-01T04:45:05;8.70;99.90
33927;DHT22;20485;50.992;5.550;2023-04-01T04:47:31;8.70;99.90
33927;DHT22;20485;50.992;5.550;2023-04-01T04:49:57;8.70;99.90
33927;DHT22;20485;50.992;5.550;2023-04-01T04:52:24;8.70;99.90
33927;DHT22;20485;50.992;5.550;2023-04-01T04:54:50;8.60;99.90
33927;DHT22;20485;50.992;5.550;2023-04-01T04:57:15;8.60;99.90
33927;DHT22;20485;50.992;5.550;2023-04-01T04:59:41;8.60;99.90
33927;DHT22;20485;50.992;5.550;2023-04-01T05:02:07;8.60;99.90
33927;DHT22;20485;50.992;5.550;2023-04-01T05:04:36;8.60;99.90
33927;DHT22;20485;50.992;5.550;2023-04-01T05:07:02;8.60;99.90
33927;DHT22;20485;50.992;5.550;2023-04-01T05:09:28;8.60;99.90
33927;DHT22;20485;50.992;5.550;2023-04-01T05:11:54;8.60;99.90
33927;DHT22;20485;50.992;5.550;2023-04-01T05:14:19;8.60;99.90
33927;DHT22;20485;50.992;5.550;2023-04-01T05:16:46;8.60;99.90
33927;DHT22;20485;50.992;5.550;2023-04-01T05:19:12;8.60;99.90
33927;DHT22;20485;50.992;5.550;2023-04-01T05:21:38;8.60;99.90
33927;DHT22;20485;50.992;5.550;2023-04-01T05:24:07;8.60;99.90
33927;DHT22;20485;50.992;5.550;2023-04-01T05:26:33;8.60;99.90
33927;DHT22;20485;50.992;5.550;2023-04-01T05:28:59;8.60;99.90
33927;DHT22;20485;50.992;5.550;2023-04-01T05:31:25;8.60;99.90
33927;DHT22;20485;50.992;5.550;2023-04-01T05:33:51;8.60;99.90
33927;DHT22;20485;50.992;5.550;2023-04-01T05:36:16;8.60;99.90
33927;DHT22;20485;50.992;5.550;2023-04-01T05:38:43;8.60;99.90
33927;DHT22;20485;50.992;5.550;2023-04-01T05:41:11;8.60;99.90
33927;DHT22;20485;50.992;5.550;2023-04-01T05:43:38;8.70;99.90
33927;DHT22;20485;50.992;5.550;2023-04-01T05:46:05;8.70;99.90
33927;DHT22;20485;50.992;5.550;2023-04-01T05:48:30;8.70;99.90
33927;DHT22;20485;50.992;5.550;2023-04-01T05:50:56;8.70;99.90
33927;DHT22;20485;50.992;5.550;2023-04-01T05:53:22;8.60;99.90
33927;DHT22;20485;50.992;5.550;2023-04-01T05:55:48;8.60;99.90
33927;DHT22;20485;50.992;5.550;2023-04-01T05:58:13;8.70;99.90
33927;DHT22;20485;50.992;5.550;2023-04-01T06:00:39;8.70;99.90
33927;DHT22;20485;50.992;5.550;2023-04-01T06:03:05;8.70;99.90
33927;DHT22;20485;50.992;5.550;2023-04-01T06:05:41;8.60;99.90
33927;DHT22;20485;50.992;5.550;2023-04-01T06:08:25;8.70;99.90
33927;DHT22;20485;50.992;5.550;2023-04-01T06:28:16;8.60;99.90
33927;DHT22;20485;50.992;5.550;2023-04-01T06:33:44;8.70;99.90
33927;DHT22;20485;50.992;5.550;2023-04-01T06:36:39;8.70;99.90
33927;DHT22;20485;50.992;5.550;2023-04-01T06:49:58;8.70;99.90
33927;DHT22;20485;50.992;5.550;2023-04-01T06:55:17;8.70;99.90
33927;DHT22;20485;50.992;5.550;2023-04-01T06:57:47;8.70;99.90
33927;DHT22;20485;50.992;5.550;2023-04-01T07:00:40;8.70;99.90
33927;DHT22;20485;50.992;5.550;2023-04-01T07:06:14;8.70;99.90
33927;DHT22;20485;50.992;5.550;2023-04-01T07:08:50;8.80;99.90
33927;DHT22;20485;50.992;5.550;2023-04-01T07:14:36;8.70;99.90
33927;DHT22;20485;50.992;5.550;2023-04-01T07:17:20;8.70;99.90
33927;DHT22;20485;50.992;5.550;2023-04-01T07:19:52;8.70;99.90
33927;DHT22;20485;50.992;5.550;2023-04-01T07:22:32;8.80;99.90
33927;DHT22;20485;50.992;5.550;2023-04-01T07:25:07;8.70;99.90
33927;DHT22;20485;50.992;5.550;2023-04-01T07:27:36;8.80;99.90
33927;DHT22;20485;50.992;5.550;2023-04-01T07:30:06;8.80;99.90
33927;DHT22;20485;50.992;5.550;2023-04-01T07:32:49;8.80;99.90
33927;DHT22;20485;50.992;5.550;2023-04-01T07:38:20;8.80;99.90
33927;DHT22;20485;50.992;5.550;2023-04-01T07:41:04;8.80;99.90
33927;DHT22;20485;50.992;5.550;2023-04-01T07:44:27;8.70;99.90
33927;DHT22;20485;50.992;5.550;2023-04-01T07:50:01;8.70;99.90
33927;DHT22;20485;50.992;5.550;2023-04-01T08:00:33;9.10;99.90
33927;DHT22;20485;50.992;5.550;2023-04-01T08:03:31;9.00;99.90
33927;DHT22;20485;50.992;5.550;2023-04-01T08:06:00;9.00;99.90
33927;DHT22;20485;50.992;5.550;2023-04-01T08:08:46;9.00;99.90
33927;DHT22;20485;50.992;5.550;2023-04-01T08:14:34;8.90;99.90
33927;DHT22;20485;50.992;5.550;2023-04-01T08:17:24;9.00;99.90
33927;DHT22;20485;50.992;5.550;2023-04-01T08:23:04;9.00;99.90
33927;DHT22;20485;50.992;5.550;2023-04-01T08:25:34;9.10;99.90
33927;DHT22;20485;50.992;5.550;2023-04-01T08:28:24;9.10;99.90
33927;DHT22;20485;50.992;5.550;2023-04-01T08:33:53;9.20;99.90
33927;DHT22;20485;50.992;5.550;2023-04-01T08:36:36;9.20;99.90
33927;DHT22;20485;50.992;5.550;2023-04-01T08:39:24;9.10;99.90
33927;DHT22;20485;50.992;5.550;2023-04-01T09:16:13;9.30;99.90
33927;DHT22;20485;50.992;5.550;2023-04-01T09:27:32;9.40;99.90
33927;DHT22;20485;50.992;5.550;2023-04-01T09:36:04;9.40;99.90
33927;DHT22;20485;50.992;5.550;2023-04-01T09:38:57;9.40;99.90
33927;DHT22;20485;50.992;5.550;2023-04-01T09:41:30;9.40;99.90
33927;DHT22;20485;50.992;5.550;2023-04-01T09:44:28;9.50;99.90
33927;DHT22;20485;50.992;5.550;2023-04-01T09:52:54;9.50;99.90
33927;DHT22;20485;50.992;5.550;2023-04-01T09:58:22;9.50;99.90
33927;DHT22;20485;50.992;5.550;2023-04-01T10:08:36;9.40;99.90
33927;DHT22;20485;50.992;5.550;2023-04-01T10:22:22;9.60;99.90
33927;DHT22;20485;50.992;5.550;2023-04-01T10:33:16;9.80;99.90
33927;DHT22;20485;50.992;5.550;2023-04-01T10:42:13;9.70;99.90
33927;DHT22;20485;50.992;5.550;2023-04-01T10:44:49;9.70;99.90
33927;DHT22;20485;50.992;5.550;2023-04-01T10:58:51;10.00;99.90
33927;DHT22;20485;50.992;5.550;2023-04-01T11:22:26;10.30;99.90
33927;DHT22;20485;50.992;5.550;2023-04-01T11:25:09;10.20;99.90
33927;DHT22;20485;50.992;5.550;2023-04-01T11:30:58;10.10;99.90
33927;DHT22;20485;50.992;5.550;2023-04-01T11:52:08;10.30;99.90
33927;DHT22;20485;50.992;5.550;2023-04-01T11:55:04;10.20;99.90
33927;DHT22;20485;50.992;5.550;2023-04-01T13:06:25;10.20;99.90
33927;DHT22;20485;50.992;5.550;2023-04-01T13:28:32;10.20;99.90
33927;DHT22;20485;50.992;5.550;2023-04-01T13:42:06;10.40;99.90
33927;DHT22;20485;50.992;5.550;2023-04-01T13:45:00;10.30;99.90
33927;DHT22;20485;50.992;5.550;2023-04-01T13:47:45;10.20;99.90
33927;DHT22;20485;50.992;5.550;2023-04-01T13:53:13;10.10;99.90
33927;DHT22;20485;50.992;5.550;2023-04-01T13:55:49;10.10;99.90
